Time;durP1;ratioP1;P1;durP2;ratioP2;P2;SDS_P1;SDS_P2;PMS_P1;PMS_P2;Temp;Humidity;BMP_temperature;BMP_pressure;BME280_temperature;BME280_humidity;BME280_pressure;Samples;Min_cycle;Max_cycle;Signal;HPM_P1;HPM_P2
2024/01/05 00:00:13;;;;;;;;;;;18.10;66.40;;;;;;5045612;28;1268;-68
2024/01/05 00:02:39;;;;;;;;;;;18.10;66.40;;;;;;5037076;28;1332;-69
2024/01/05 00:05:05;;;;;;;;;;;18.10;66.40;;;;;;5039015;28;1812;-69
2024/01/05 00:07:30;;;;;;;;;;;18.10;66.40;;;;;;5040544;28;887;-69
2024/01/05 00:09:56;;;;;;;;;;;18.10;66.40;;;;;;5038385;28;1906;-69
2024/01/05 00:12:21;;;;;;;;;;;18.10;66.50;;;;;;5071440;28;1313;-70
2024/01/05 00:14:47;;;;;;;;;;;18.10;66.50;;;;;;5041590;28;1350;-69
2024/01/05 00:17:12;;;;;;;;;;;18.10;66.40;;;;;;5040842;28;1330;-68
2024/01/05 00:19:37;;;;;;;;;;;18.10;66.40;;;;;;5040723;28;1533;-70
2024/01/05 00:22:03;;;;;;;;;;;18.10;66.40;;;;;;5038460;28;1383;-69
2024/01/05 00:24:28;;;;;;;;;;;18.10;66.50;;;;;;5037861;28;1241;-68
2024/01/05 00:26:54;;;;;;;;;;;18.10;66.50;;;;;;5038758;28;1496;-68
2024/01/05 00:29:19;;;;;;;;;;;18.10;66.50;;;;;;5038444;28;1898;-69
2024/01/05 00:31:45;;;;;;;;;;;18.10;66.50;;;;;;5036555;28;1221;-68
2024/01/05 00:34:10;;;;;;;;;;;18.10;66.50;;;;;;5036110;28;1308;-68
2024/01/05 00:36:36;;;;;;;;;;;18.10;66.50;;;;;;5036648;28;1437;-68
2024/01/05 00:39:02;;;;;;;;;;;18.10;66.50;;;;;;5038265;28;1142;-68
2024/01/05 00:41:27;;;;;;;;;;;18.10;66.50;;;;;;5041291;28;1725;-68
2024/01/05 00:43:52;;;;;;;;;;;18.10;66.50;;;;;;5070487;28;1558;-68
2024/01/05 00:46:18;;;;;;;;;;;18.10;66.50;;;;;;5038595;28;1240;-68
2024/01/05 00:48:43;;;;;;;;;;;18.10;66.50;;;;;;5038097;28;1923;-68
2024/01/05 00:51:09;;;;;;;;;;;18.10;66.50;;;;;;5038804;28;1378;-68
2024/01/05 00:53:34;;;;;;;;;;;18.10;66.50;;;;;;5042787;28;1396;-68
2024/01/05 00:56:00;;;;;;;;;;;18.10;66.50;;;;;;5039024;28;1780;-68
2024/01/05 00:58:25;;;;;;;;;;;18.10;66.50;;;;;;5037750;28;1325;-68
2024/01/05 01:00:51;;;;;;;;;;;18.10;66.50;;;;;;5037865;28;1535;-68
2024/01/05 01:03:16;;;;;;;;;;;18.10;66.50;;;;;;5041058;28;1355;-68
2024/01/05 01:05:42;;;;;;;;;;;18.10;66.50;;;;;;5042236;28;1488;-68
2024/01/05 01:08:07;;;;;;;;;;;18.10;66.50;;;;;;5039074;28;1573;-68
2024/01/05 01:10:33;;;;;;;;;;;18.10;66.50;;;;;;5039995;28;1922;-68
2024/01/05 01:13:00;;;;;;;;;;;18.10;66.40;;;;;;5069750;28;1279;-68
2024/01/05 01:15:25;;;;;;;;;;;18.10;67.20;;;;;;5036945;28;1618;-68
2024/01/05 01:17:51;;;;;;;;;;;18.10;66.50;;;;;;5037168;28;1434;-68
2024/01/05 01:20:17;;;;;;;;;;;18.10;66.40;;;;;;5069506;28;1344;-68
2024/01/05 01:22:43;;;;;;;;;;;18.10;66.50;;;;;;5039132;28;1469;-67
2024/01/05 01:25:08;;;;;;;;;;;18.10;66.50;;;;;;5038066;28;1733;-68
2024/01/05 01:27:34;;;;;;;;;;;18.10;66.40;;;;;;5037803;28;1108;-68
2024/01/05 01:29:59;;;;;;;;;;;18.10;66.50;;;;;;5036773;28;1949;-68
2024/01/05 01:32:25;;;;;;;;;;;18.10;66.40;;;;;;5038350;28;1473;-68
2024/01/05 01:34:50;;;;;;;;;;;18.10;66.40;;;;;;5040450;28;1214;-68
2024/01/05 01:37:16;;;;;;;;;;;18.10;66.50;;;;;;5037619;28;1144;-68
2024/01/05 01:39:41;;;;;;;;;;;18.10;66.50;;;;;;5040782;28;1460;-68
2024/01/05 01:42:06;;;;;;;;;;;18.10;66.50;;;;;;5038278;28;1506;-68
2024/01/05 01:44:32;;;;;;;;;;;18.10;66.50;;;;;;5036442;28;1379;-68
2024/01/05 01:46:57;;;;;;;;;;;18.10;66.50;;;;;;5037900;28;1367;-68
2024/01/05 01:49:23;;;;;;;;;;;18.10;66.50;;;;;;5038049;28;1965;-70
2024/01/05 01:51:48;;;;;;;;;;;18.10;66.50;;;;;;5038189;28;1456;-68
2024/01/05 01:54:14;;;;;;;;;;;18.10;66.50;;;;;;5040995;28;1367;-69
2024/01/05 01:56:39;;;;;;;;;;;18.10;66.50;;;;;;5041020;28;1323;-69
2024/01/05 01:59:05;;;;;;;;;;;18.10;66.50;;;;;;5038274;28;1787;-69
2024/01/05 02:01:30;;;;;;;;;;;18.10;66.40;;;;;;5042083;28;1379;-69
2024/01/05 02:03:56;;;;;;;;;;;18.10;66.40;;;;;;5040015;28;1359;-69
2024/01/05 02:06:21;;;;;;;;;;;18.10;66.50;;;;;;5037405;28;1376;-69
2024/01/05 02:08:47;;;;;;;;;;;18.10;66.40;;;;;;5040055;28;1902;-69
2024/01/05 02:11:13;;;;;;;;;;;18.10;66.40;;;;;;5045042;28;1253;-69
2024/01/05 02:13:38;;;;;;;;;;;18.10;66.40;;;;;;5036698;28;1355;-69
2024/01/05 02:16:04;;;;;;;;;;;18.10;66.50;;;;;;5074027;28;1327;-68
2024/01/05 02:18:30;;;;;;;;;;;18.10;66.50;;;;;;5036551;28;1352;-69
2024/01/05 02:20:56;;;;;;;;;;;18.10;66.40;;;;;;5040654;28;1327;-69
2024/01/05 02:23:25;;;;;;;;;;;18.10;66.50;;;;;;5042053;28;1355;-69
2024/01/05 02:25:50;;;;;;;;;;;18.10;66.40;;;;;;5049182;28;1269;-69
2024/01/05 02:28:16;;;;;;;;;;;18.10;66.40;;;;;;5043190;28;1113;-69
2024/01/05 02:30:42;;;;;;;;;;;18.10;66.40;;;;;;5072854;28;1976;-69
2024/01/05 02:33:07;;;;;;;;;;;18.10;66.40;;;;;;5044362;28;1277;-69
2024/01/05 02:35:33;;;;;;;;;;;18.10;66.50;;;;;;5043180;28;1298;-69
2024/01/05 02:37:58;;;;;;;;;;;18.10;66.40;;;;;;5071551;28;1421;-69
2024/01/05 02:40:24;;;;;;;;;;;18.10;66.40;;;;;;5042559;28;1500;-69
2024/01/05 02:42:49;;;;;;;;;;;18.10;66.40;;;;;;5041957;28;1520;-69
2024/01/05 02:45:20;;;;;;;;;;;18.10;66.40;;;;;;5044920;28;1133;-69
2024/01/05 02:47:49;;;;;;;;;;;18.10;66.40;;;;;;5070095;28;1189;-69
2024/01/05 02:50:15;;;;;;;;;;;18.10;66.50;;;;;;5042015;28;1957;-68
2024/01/05 02:52:40;;;;;;;;;;;18.10;66.40;;;;;;5040379;28;1327;-68
2024/01/05 02:55:06;;;;;;;;;;;18.10;66.40;;;;;;5039989;28;1751;-68
2024/01/05 02:57:31;;;;;;;;;;;18.10;66.40;;;;;;5038866;28;1639;-68
2024/01/05 02:59:57;;;;;;;;;;;18.10;66.40;;;;;;5038111;28;1381;-69
2024/01/05 03:02:22;;;;;;;;;;;18.10;66.50;;;;;;5039059;28;1472;-69
2024/01/05 03:04:49;;;;;;;;;;;18.10;66.40;;;;;;5042814;28;1526;-69
2024/01/05 03:07:14;;;;;;;;;;;18.10;66.40;;;;;;5040349;28;1427;-69
2024/01/05 03:09:40;;;;;;;;;;;18.10;66.40;;;;;;5041099;28;1902;-70
2024/01/05 03:12:05;;;;;;;;;;;18.10;66.40;;;;;;5041057;28;1317;-69
2024/01/05 03:14:31;;;;;;;;;;;18.10;66.40;;;;;;5072791;28;1275;-69
2024/01/05 03:16:56;;;;;;;;;;;18.10;66.40;;;;;;5048077;28;1342;-69
2024/01/05 03:19:22;;;;;;;;;;;18.10;66.40;;;;;;5040222;28;1459;-69
2024/01/05 03:21:47;;;;;;;;;;;18.10;66.50;;;;;;5039008;28;1568;-69
2024/01/05 03:24:13;;;;;;;;;;;18.10;66.40;;;;;;5038666;28;1380;-70
2024/01/05 03:26:38;;;;;;;;;;;18.10;66.40;;;;;;5041657;28;1478;-70
2024/01/05 03:29:03;;;;;;;;;;;18.10;66.40;;;;;;5073004;28;1902;-71
2024/01/05 03:31:29;;;;;;;;;;;18.10;66.50;;;;;;5041307;28;1227;-69
2024/01/05 03:33:54;;;;;;;;;;;18.10;66.40;;;;;;5039629;28;1326;-70
2024/01/05 03:36:20;;;;;;;;;;;18.10;66.40;;;;;;5041298;28;1483;-70
2024/01/05 03:38:45;;;;;;;;;;;18.10;66.40;;;;;;5038611;28;1524;-69
2024/01/05 03:41:13;;;;;;;;;;;18.10;66.40;;;;;;5039190;28;1290;-68
2024/01/05 03:43:39;;;;;;;;;;;18.10;66.50;;;;;;5040521;28;1411;-68
2024/01/05 03:46:08;;;;;;;;;;;18.10;66.40;;;;;;5068873;28;1739;-68
2024/01/05 03:48:34;;;;;;;;;;;18.10;66.50;;;;;;5038328;28;1344;-68
2024/01/05 03:50:59;;;;;;;;;;;18.00;66.40;;;;;;5039600;28;1988;-68
2024/01/05 03:53:25;;;;;;;;;;;18.00;66.40;;;;;;5038973;28;1481;-68
2024/01/05 03:55:50;;;;;;;;;;;18.00;66.40;;;;;;5042634;28;1418;-68
2024/01/05 03:58:16;;;;;;;;;;;18.00;66.40;;;;;;5044377;28;1348;-69
2024/01/05 04:00:41;;;;;;;;;;;18.10;66.40;;;;;;5041414;28;1277;-69
2024/01/05 04:03:06;;;;;;;;;;;18.00;67.20;;;;;;5041578;28;1359;-69
2024/01/05 04:05:32;;;;;;;;;;;18.00;66.40;;;;;;5038342;28;1244;-68
2024/01/05 04:07:57;;;;;;;;;;;18.10;66.50;;;;;;5038658;28;1232;-68
2024/01/05 04:10:23;;;;;;;;;;;18.00;66.40;;;;;;5036840;28;1922;-67
2024/01/05 04:12:48;;;;;;;;;;;18.10;66.50;;;;;;5036323;28;1549;-67
2024/01/05 04:15:14;;;;;;;;;;;18.10;66.50;;;;;;5037605;28;1345;-67
2024/01/05 04:17:39;;;;;;;;;;;18.10;66.50;;;;;;5034480;28;1241;-67
2024/01/05 04:20:05;;;;;;;;;;;18.00;66.40;;;;;;5038013;28;1349;-67
2024/01/05 04:22:31;;;;;;;;;;;18.00;66.40;;;;;;5040698;28;1486;-68
2024/01/05 04:24:59;;;;;;;;;;;18.00;66.50;;;;;;5037666;28;1308;-67
2024/01/05 04:27:25;;;;;;;;;;;18.00;66.40;;;;;;5037779;28;1326;-67
2024/01/05 04:29:50;;;;;;;;;;;18.10;66.50;;;;;;5038003;28;1886;-67
2024/01/05 04:32:16;;;;;;;;;;;18.00;66.40;;;;;;5038990;28;1308;-67
2024/01/05 04:34:41;;;;;;;;;;;18.10;66.50;;;;;;5038809;28;1464;-67
2024/01/05 04:37:07;;;;;;;;;;;18.10;66.50;;;;;;5035114;28;1307;-68
2024/01/05 04:39:32;;;;;;;;;;;18.00;66.40;;;;;;5037082;28;1587;-68
2024/01/05 04:41:58;;;;;;;;;;;18.00;66.40;;;;;;5034730;28;1495;-68
2024/01/05 04:44:23;;;;;;;;;;;18.00;66.40;;;;;;5038165;28;1260;-68
2024/01/05 04:46:49;;;;;;;;;;;18.10;66.50;;;;;;5039403;28;1526;-67
2024/01/05 04:49:14;;;;;;;;;;;18.00;66.40;;;;;;5037868;28;1902;-67
2024/01/05 04:51:39;;;;;;;;;;;18.00;66.40;;;;;;5037265;28;1232;-67
2024/01/05 04:54:05;;;;;;;;;;;18.00;66.40;;;;;;5039155;28;1512;-68
2024/01/05 04:56:30;;;;;;;;;;;18.10;66.50;;;;;;5044855;28;1662;-67
2024/01/05 04:58:56;;;;;;;;;;;18.00;66.50;;;;;;5036682;28;1311;-67
2024/01/05 05:01:21;;;;;;;;;;;18.00;66.50;;;;;;5037856;28;1303;-68
2024/01/05 05:03:47;;;;;;;;;;;18.00;66.50;;;;;;5036265;28;1402;-68
2024/01/05 05:06:12;;;;;;;;;;;18.00;66.50;;;;;;5033786;28;1020;-68
2024/01/05 05:08:38;;;;;;;;;;;18.00;66.50;;;;;;5036334;28;1189;-67
2024/01/05 05:11:03;;;;;;;;;;;18.00;66.40;;;;;;5037839;28;1957;-66
2024/01/05 05:13:29;;;;;;;;;;;18.00;66.50;;;;;;5038297;28;1280;-67
2024/01/05 05:15:54;;;;;;;;;;;18.00;66.50;;;;;;5038750;28;1121;-68
2024/01/05 05:18:20;;;;;;;;;;;18.00;66.50;;;;;;5036450;28;880;-68
2024/01/05 05:20:45;;;;;;;;;;;18.00;66.50;;;;;;5037089;28;1602;-67
2024/01/05 05:23:11;;;;;;;;;;;18.00;66.50;;;;;;5069997;28;1286;-68
2024/01/05 05:25:36;;;;;;;;;;;18.00;66.40;;;;;;5040642;28;1255;-68
2024/01/05 05:28:02;;;;;;;;;;;18.00;66.40;;;;;;5040646;28;1361;-69
2024/01/05 05:30:27;;;;;;;;;;;18.10;66.40;;;;;;5036453;28;1914;-70
2024/01/05 05:32:53;;;;;;;;;;;18.10;66.30;;;;;;5046275;28;1600;-68
2024/01/05 05:35:18;;;;;;;;;;;18.10;66.30;;;;;;5040095;28;1489;-68
2024/01/05 05:37:44;;;;;;;;;;;18.10;66.10;;;;;;5037768;28;1236;-68
2024/01/05 05:40:10;;;;;;;;;;;18.10;66.00;;;;;;5036913;28;1533;-68
2024/01/05 05:42:36;;;;;;;;;;;18.20;66.00;;;;;;5036850;28;1355;-68
2024/01/05 05:45:01;;;;;;;;;;;18.20;65.90;;;;;;5040723;28;1253;-67
2024/01/05 05:47:27;;;;;;;;;;;18.20;65.80;;;;;;5036045;28;1238;-67
2024/01/05 05:49:53;;;;;;;;;;;18.30;65.70;;;;;;5071510;28;1902;-70
2024/01/05 05:52:18;;;;;;;;;;;18.30;65.60;;;;;;5039666;28;1561;-69
2024/01/05 05:54:44;;;;;;;;;;;18.30;65.50;;;;;;5038048;28;1482;-68
2024/01/05 05:57:09;;;;;;;;;;;18.30;65.50;;;;;;5036364;28;1335;-68
2024/01/05 05:59:35;;;;;;;;;;;18.30;65.40;;;;;;5070183;28;1294;-68
2024/01/05 06:02:00;;;;;;;;;;;18.30;65.30;;;;;;5043014;28;1308;-68
2024/01/05 06:04:26;;;;;;;;;;;18.40;65.30;;;;;;5037489;28;1266;-68
2024/01/05 06:06:51;;;;;;;;;;;18.40;65.20;;;;;;5040169;28;1249;-67
2024/01/05 06:09:17;;;;;;;;;;;18.40;65.20;;;;;;5037949;28;1898;-67
2024/01/05 06:11:42;;;;;;;;;;;18.40;65.10;;;;;;5039595;28;1261;-67
2024/01/05 06:14:07;;;;;;;;;;;18.40;65.10;;;;;;5042494;28;1587;-67
2024/01/05 06:16:33;;;;;;;;;;;18.40;65.00;;;;;;5040675;28;1362;-67
2024/01/05 06:18:58;;;;;;;;;;;18.40;65.00;;;;;;5042132;28;1567;-67
2024/01/05 06:21:25;;;;;;;;;;;18.40;64.90;;;;;;5038081;28;1323;-68
2024/01/05 06:23:50;;;;;;;;;;;18.40;64.90;;;;;;5035911;28;1322;-69
2024/01/05 06:26:16;;;;;;;;;;;18.40;64.90;;;;;;5040428;28;1243;-67
2024/01/05 06:28:41;;;;;;;;;;;18.50;64.90;;;;;;5069081;28;1584;-67
2024/01/05 06:31:07;;;;;;;;;;;18.50;64.90;;;;;;5037604;28;1989;-68
2024/01/05 06:33:32;;;;;;;;;;;18.50;64.80;;;;;;5036837;28;1340;-68
2024/01/05 06:35:58;;;;;;;;;;;18.50;64.90;;;;;;5039646;28;1407;-67
2024/01/05 06:38:23;;;;;;;;;;;18.50;64.80;;;;;;5044853;28;1577;-68
2024/01/05 06:40:49;;;;;;;;;;;18.50;64.80;;;;;;5039934;28;1157;-67
2024/01/05 06:43:14;;;;;;;;;;;18.50;64.80;;;;;;5041419;28;1602;-68
2024/01/05 06:45:40;;;;;;;;;;;18.50;64.80;;;;;;5027603;28;1453;-67
2024/01/05 06:48:06;;;;;;;;;;;18.50;64.80;;;;;;5049755;28;1637;-68
2024/01/05 06:50:31;;;;;;;;;;;18.50;64.80;;;;;;5040398;28;1902;-68
2024/01/05 06:52:56;;;;;;;;;;;18.50;64.80;;;;;;5041758;28;1310;-68
2024/01/05 06:55:22;;;;;;;;;;;18.50;64.80;;;;;;5043180;28;1254;-68
2024/01/05 06:57:48;;;;;;;;;;;18.50;64.80;;;;;;5041138;28;1240;-68
2024/01/05 07:00:13;;;;;;;;;;;18.50;64.70;;;;;;5073116;28;1476;-68
2024/01/05 07:02:40;;;;;;;;;;;18.50;64.80;;;;;;5071830;28;1553;-69
2024/01/05 07:05:06;;;;;;;;;;;18.50;64.80;;;;;;5042236;28;1681;-68
2024/01/05 07:07:31;;;;;;;;;;;18.50;64.80;;;;;;5048333;28;1397;-68
2024/01/05 07:09:56;;;;;;;;;;;18.50;64.80;;;;;;5041483;28;1971;-68
2024/01/05 07:12:22;;;;;;;;;;;18.50;64.80;;;;;;5043087;28;1343;-67
2024/01/05 07:14:48;;;;;;;;;;;18.50;64.80;;;;;;5040228;28;1265;-68
2024/01/05 07:17:13;;;;;;;;;;;18.50;64.80;;;;;;5038286;28;1937;-70
2024/01/05 07:19:39;;;;;;;;;;;18.50;64.80;;;;;;5036074;28;1914;-67
2024/01/05 07:22:04;;;;;;;;;;;18.50;64.80;;;;;;5038036;28;1328;-66
2024/01/05 07:24:30;;;;;;;;;;;18.50;64.90;;;;;;5036914;28;1388;-67
2024/01/05 07:26:55;;;;;;;;;;;18.50;64.90;;;;;;5040809;28;1633;-70
2024/01/05 07:29:21;;;;;;;;;;;18.50;64.90;;;;;;5037755;28;1977;-66
2024/01/05 07:31:46;;;;;;;;;;;18.50;64.90;;;;;;5038504;28;915;-67
2024/01/05 07:34:11;;;;;;;;;;;18.40;64.90;;;;;;5040359;28;1781;-68
2024/01/05 07:36:40;;;;;;;;;;;18.50;64.90;;;;;;5037115;28;1244;-68
2024/01/05 07:39:06;;;;;;;;;;;18.40;64.90;;;;;;5037515;28;1444;-68
2024/01/05 07:41:32;;;;;;;;;;;18.40;64.90;;;;;;5036969;28;1503;-68
2024/01/05 07:43:57;;;;;;;;;;;18.40;64.90;;;;;;5038351;28;1456;-68
2024/01/05 07:46:25;;;;;;;;;;;18.40;64.90;;;;;;5039250;28;1295;-68
2024/01/05 07:48:51;;;;;;;;;;;18.40;64.90;;;;;;5040725;28;1453;-69
2024/01/05 07:51:19;;;;;;;;;;;18.40;64.90;;;;;;5039181;28;2035;-68
2024/01/05 07:53:45;;;;;;;;;;;18.40;64.90;;;;;;5039348;28;1371;-67
2024/01/05 07:56:10;;;;;;;;;;;18.40;64.90;;;;;;5071641;28;1714;-67
2024/01/05 07:58:36;;;;;;;;;;;18.40;64.90;;;;;;5041225;28;1509;-69
2024/01/05 08:01:01;;;;;;;;;;;18.40;65.00;;;;;;5039894;28;1322;-68
2024/01/05 08:03:27;;;;;;;;;;;18.40;64.90;;;;;;5073418;28;1659;-69
2024/01/05 08:05:52;;;;;;;;;;;18.40;65.00;;;;;;5040090;28;1502;-68
2024/01/05 08:08:18;;;;;;;;;;;18.40;65.00;;;;;;5039762;28;1380;-67
2024/01/05 08:10:44;;;;;;;;;;;18.40;65.00;;;;;;5039931;28;1902;-68
2024/01/05 08:13:09;;;;;;;;;;;18.40;65.00;;;;;;5043332;28;1407;-68
2024/01/05 08:15:35;;;;;;;;;;;18.40;65.00;;;;;;5045607;28;1353;-68
2024/01/05 08:18:01;;;;;;;;;;;18.40;65.00;;;;;;5040233;28;1383;-69
2024/01/05 08:20:27;;;;;;;;;;;18.40;65.00;;;;;;5039247;28;1566;-70
2024/01/05 08:22:53;;;;;;;;;;;18.40;65.00;;;;;;5070570;28;1642;-70
2024/01/05 08:25:19;;;;;;;;;;;18.40;65.10;;;;;;5042272;28;1639;-68
2024/01/05 08:27:44;;;;;;;;;;;18.40;65.10;;;;;;5041907;28;1504;-68
2024/01/05 08:30:10;;;;;;;;;;;18.40;65.00;;;;;;5048056;28;1974;-68
2024/01/05 08:32:36;;;;;;;;;;;18.40;65.10;;;;;;5040618;28;1619;-68
2024/01/05 08:35:01;;;;;;;;;;;18.40;65.10;;;;;;5038175;28;1471;-68
2024/01/05 08:37:26;;;;;;;;;;;18.40;65.10;;;;;;5038278;28;1470;-68
2024/01/05 08:39:52;;;;;;;;;;;18.40;65.10;;;;;;5034827;28;1565;-68
2024/01/05 08:42:17;;;;;;;;;;;18.40;65.10;;;;;;5038987;28;1358;-68
2024/01/05 08:44:43;;;;;;;;;;;18.40;65.10;;;;;;5040445;28;1623;-68
2024/01/05 08:47:08;;;;;;;;;;;18.40;65.10;;;;;;5040967;28;1552;-68
2024/01/05 08:49:34;;;;;;;;;;;18.40;65.10;;;;;;5070772;28;1964;-69
2024/01/05 08:52:00;;;;;;;;;;;18.40;65.10;;;;;;5040011;28;1601;-68
2024/01/05 08:54:26;;;;;;;;;;;18.40;65.10;;;;;;5039726;28;1279;-68
2024/01/05 08:56:52;;;;;;;;;;;18.40;65.00;;;;;;5040549;28;1448;-68
2024/01/05 08:59:17;;;;;;;;;;;18.40;65.00;;;;;;5042981;28;1449;-68
2024/01/05 09:01:43;;;;;;;;;;;18.40;65.00;;;;;;5039129;28;1186;-68
2024/01/05 09:04:10;;;;;;;;;;;18.40;64.90;;;;;;5038048;28;1563;-68
2024/01/05 09:06:38;;;;;;;;;;;18.40;64.90;;;;;;5039969;28;1294;-68
2024/01/05 09:09:04;;;;;;;;;;;18.40;64.90;;;;;;5040241;28;1910;-68
2024/01/05 09:11:29;;;;;;;;;;;18.40;64.80;;;;;;5038265;28;1359;-69
2024/01/05 09:13:55;;;;;;;;;;;18.50;64.80;;;;;;5038484;28;1374;-70
2024/01/05 09:16:20;;;;;;;;;;;18.50;64.90;;;;;;5070134;28;1520;-70
2024/01/05 09:18:46;;;;;;;;;;;18.50;64.80;;;;;;5039420;28;1476;-70
2024/01/05 09:21:12;;;;;;;;;;;18.40;64.70;;;;;;5068863;28;1594;-70
2024/01/05 09:23:38;;;;;;;;;;;18.50;64.80;;;;;;5072506;28;1414;-69
2024/01/05 09:26:04;;;;;;;;;;;18.40;64.80;;;;;;5070047;28;1342;-69
2024/01/05 09:28:30;;;;;;;;;;;18.40;64.80;;;;;;5038216;28;1246;-70
2024/01/05 09:30:55;;;;;;;;;;;18.40;64.80;;;;;;5036197;28;1898;-70
2024/01/05 09:33:20;;;;;;;;;;;18.40;64.80;;;;;;5039699;28;1291;-70
2024/01/05 09:35:46;;;;;;;;;;;18.40;64.80;;;;;;5039372;28;1264;-70
2024/01/05 09:38:11;;;;;;;;;;;18.40;64.80;;;;;;5039743;28;1633;-70
2024/01/05 09:40:37;;;;;;;;;;;18.40;64.80;;;;;;5037239;28;1433;-70
2024/01/05 09:43:04;;;;;;;;;;;18.40;64.80;;;;;;5038502;28;1393;-70
2024/01/05 09:45:30;;;;;;;;;;;18.40;64.70;;;;;;5039794;28;1246;-70
2024/01/05 09:47:57;;;;;;;;;;;18.50;64.70;;;;;;5046009;28;1479;-70
2024/01/05 09:50:23;;;;;;;;;;;18.50;64.70;;;;;;5038077;28;1906;-69
2024/01/05 09:52:48;;;;;;;;;;;18.50;64.70;;;;;;5039107;28;1354;-70
2024/01/05 09:55:14;;;;;;;;;;;18.50;64.60;;;;;;5021195;28;1595;-70
2024/01/05 09:57:40;;;;;;;;;;;18.50;64.70;;;;;;5037937;28;1560;-70
2024/01/05 10:00:06;;;;;;;;;;;18.50;64.50;;;;;;5036735;28;1249;-69
2024/01/05 10:02:32;;;;;;;;;;;18.50;64.50;;;;;;5045022;28;1390;-69
2024/01/05 10:04:58;;;;;;;;;;;18.50;64.40;;;;;;5040666;28;1374;-69
2024/01/05 10:07:23;;;;;;;;;;;18.50;64.40;;;;;;5034730;28;1322;-69
2024/01/05 10:09:49;;;;;;;;;;;18.60;64.50;;;;;;5036813;28;1967;-70
2024/01/05 10:12:15;;;;;;;;;;;18.60;64.50;;;;;;5039727;28;1376;-69
2024/01/05 10:14:40;;;;;;;;;;;18.60;64.50;;;;;;5041186;28;1250;-69
2024/01/05 10:17:06;;;;;;;;;;;18.60;64.40;;;;;;5040046;28;1360;-69
2024/01/05 10:19:32;;;;;;;;;;;18.60;64.40;;;;;;5042237;28;1632;-69
2024/01/05 10:21:59;;;;;;;;;;;18.60;64.40;;;;;;5043763;28;1370;-69
2024/01/05 10:24:26;;;;;;;;;;;18.60;64.40;;;;;;5040732;28;1449;-69
2024/01/05 10:27:05;;;;;;;;;;;18.60;64.40;;;;;;5042256;28;1544;-68
2024/01/05 10:29:30;;;;;;;;;;;18.50;64.40;;;;;;5042337;28;1953;-68
2024/01/05 10:32:15;;;;;;;;;;;18.60;64.40;;;;;;5043754;28;1538;-68
2024/01/05 10:34:44;;;;;;;;;;;18.60;64.40;;;;;;5039929;28;1516;-68
2024/01/05 10:37:10;;;;;;;;;;;18.60;64.40;;;;;;5040044;28;1296;-67
2024/01/05 10:39:35;;;;;;;;;;;18.60;64.40;;;;;;5040782;28;1366;-68
2024/01/05 10:42:22;;;;;;;;;;;18.60;64.30;;;;;;5044817;28;1375;-67
2024/01/05 10:44:48;;;;;;;;;;;18.60;64.30;;;;;;5042157;28;1305;-67
2024/01/05 10:47:14;;;;;;;;;;;18.60;64.20;;;;;;5041083;28;1768;-68
2024/01/05 10:49:48;;;;;;;;;;;18.60;64.10;;;;;;5038052;28;1890;-69
2024/01/05 10:52:14;;;;;;;;;;;18.60;64.10;;;;;;5029565;28;1386;-68
2024/01/05 10:54:40;;;;;;;;;;;18.60;64.10;;;;;;5043936;28;1216;-69
2024/01/05 10:57:06;;;;;;;;;;;18.70;64.10;;;;;;5049715;28;1333;-69
2024/01/05 10:59:32;;;;;;;;;;;18.60;64.00;;;;;;5043591;28;1258;-70
2024/01/05 11:01:57;;;;;;;;;;;18.70;64.00;;;;;;5043641;28;1436;-69
2024/01/05 11:04:23;;;;;;;;;;;18.70;64.00;;;;;;5072685;28;1658;-69
2024/01/05 11:06:49;;;;;;;;;;;18.70;64.00;;;;;;5048197;28;939;-69
2024/01/05 11:09:24;;;;;;;;;;;18.70;64.00;;;;;;5041727;28;1906;-69
2024/01/05 11:12:01;;;;;;;;;;;18.70;64.00;;;;;;5038952;28;1066;-70
2024/01/05 11:14:50;;;;;;;;;;;18.70;64.00;;;;;;5040192;28;1197;-69
2024/01/05 11:17:15;;;;;;;;;;;18.70;64.00;;;;;;5059915;28;1630;-69
2024/01/05 11:20:02;;;;;;;;;;;18.70;64.10;;;;;;5041552;28;1523;-71
2024/01/05 11:22:29;;;;;;;;;;;18.70;64.00;;;;;;5070334;28;1300;-69
2024/01/05 11:24:55;;;;;;;;;;;18.70;64.00;;;;;;5048132;28;1459;-69
2024/01/05 11:27:31;;;;;;;;;;;18.70;63.90;;;;;;5041581;28;1324;-70
2024/01/05 11:29:57;;;;;;;;;;;18.70;63.90;;;;;;5040690;28;1906;-69
2024/01/05 11:32:38;;;;;;;;;;;18.70;63.90;;;;;;5039945;28;1381;-69
2024/01/05 11:35:24;;;;;;;;;;;18.70;64.00;;;;;;5040070;28;1249;-70
2024/01/05 11:37:50;;;;;;;;;;;18.70;63.90;;;;;;5047449;28;1320;-69
2024/01/05 11:40:21;;;;;;;;;;;18.70;63.90;;;;;;5047397;28;1722;-68
2024/01/05 11:42:47;;;;;;;;;;;18.70;63.90;;;;;;5039346;28;1474;-69
2024/01/05 11:45:13;;;;;;;;;;;18.70;63.90;;;;;;5038805;28;1476;-69
2024/01/05 11:47:41;;;;;;;;;;;18.70;63.90;;;;;;5040561;28;1466;-70
2024/01/05 11:50:26;;;;;;;;;;;18.70;63.80;;;;;;5039042;28;1897;-69
2024/01/05 11:53:24;;;;;;;;;;;18.70;63.90;;;;;;5041737;28;1394;-69
2024/01/05 11:55:52;;;;;;;;;;;18.70;63.90;;;;;;5054702;28;1944;-68
2024/01/05 11:58:30;;;;;;;;;;;18.70;63.80;;;;;;5053200;28;1944;-69
2024/01/05 12:00:56;;;;;;;;;;;18.70;63.80;;;;;;5038820;28;1949;-69
2024/01/05 12:03:25;;;;;;;;;;;18.70;63.90;;;;;;5030079;28;1373;-68
2024/01/05 12:05:51;;;;;;;;;;;18.70;63.90;;;;;;5040438;28;1370;-68
2024/01/05 12:08:17;;;;;;;;;;;18.70;63.90;;;;;;5038593;28;1244;-69
2024/01/05 12:10:42;;;;;;;;;;;18.60;63.80;;;;;;5040385;28;1910;-69
2024/01/05 12:13:08;;;;;;;;;;;18.70;63.90;;;;;;5041354;28;1527;-69
2024/01/05 12:15:34;;;;;;;;;;;18.70;64.00;;;;;;5036302;28;1292;-68
2024/01/05 12:18:03;;;;;;;;;;;18.60;63.90;;;;;;5039910;28;1358;-68
2024/01/05 12:20:32;;;;;;;;;;;18.70;64.00;;;;;;5043219;28;1246;-69
2024/01/05 12:22:58;;;;;;;;;;;18.60;63.90;;;;;;5042208;28;1342;-69
2024/01/05 12:25:23;;;;;;;;;;;18.70;64.00;;;;;;5042180;28;1538;-68
2024/01/05 12:27:49;;;;;;;;;;;18.60;63.90;;;;;;5040841;28;1247;-68
2024/01/05 12:30:14;;;;;;;;;;;18.70;64.00;;;;;;5040981;28;1961;-68
2024/01/05 12:32:40;;;;;;;;;;;18.60;63.90;;;;;;5039056;28;1390;-70
2024/01/05 12:35:05;;;;;;;;;;;18.70;64.10;;;;;;5046458;28;1337;-69
2024/01/05 12:37:34;;;;;;;;;;;18.70;64.00;;;;;;5036573;28;1457;-69
2024/01/05 12:40:26;;;;;;;;;;;18.70;64.00;;;;;;5038046;28;1344;-69
2024/01/05 12:42:52;;;;;;;;;;;18.60;63.90;;;;;;5041501;28;1252;-69
2024/01/05 12:45:18;;;;;;;;;;;18.60;63.90;;;;;;5072836;28;1412;-69
2024/01/05 12:47:43;;;;;;;;;;;18.60;64.00;;;;;;5048088;28;1339;-69
2024/01/05 12:50:38;;;;;;;;;;;18.60;64.00;;;;;;5037840;28;1897;-69
2024/01/05 12:53:19;;;;;;;;;;;18.60;64.00;;;;;;5039233;28;1401;-69
2024/01/05 12:55:45;;;;;;;;;;;18.60;64.00;;;;;;5037565;28;1520;-68
2024/01/05 12:58:10;;;;;;;;;;;18.60;64.10;;;;;;5039304;28;1146;-68
2024/01/05 13:00:40;;;;;;;;;;;18.60;64.10;;;;;;5038015;28;864;-68
2024/01/05 13:03:12;;;;;;;;;;;18.60;64.10;;;;;;5036754;28;1308;-69
2024/01/05 13:05:37;;;;;;;;;;;18.60;64.10;;;;;;5036718;28;1476;-68
2024/01/05 13:08:03;;;;;;;;;;;18.60;64.10;;;;;;5037697;28;1322;-69
2024/01/05 13:10:29;;;;;;;;;;;18.50;64.10;;;;;;5037579;28;1957;-69
2024/01/05 13:12:54;;;;;;;;;;;18.50;64.10;;;;;;5070670;28;1580;-68
2024/01/05 13:15:20;;;;;;;;;;;18.60;64.20;;;;;;5039096;28;1856;-69
2024/01/05 13:17:46;;;;;;;;;;;18.60;64.30;;;;;;5037825;28;1166;-68
2024/01/05 13:20:30;;;;;;;;;;;18.60;64.30;;;;;;5069631;28;1952;-68
2024/01/05 13:22:55;;;;;;;;;;;18.60;64.40;;;;;;5039222;28;1320;-69
2024/01/05 13:25:21;;;;;;;;;;;18.50;64.30;;;;;;5035895;28;1936;-69
2024/01/05 13:27:47;;;;;;;;;;;18.50;64.40;;;;;;5036136;28;900;-69
2024/01/05 13:30:15;;;;;;;;;;;18.50;64.40;;;;;;5039414;28;1962;-70
2024/01/05 13:32:41;;;;;;;;;;;18.50;64.40;;;;;;5042568;28;1398;-70
2024/01/05 13:35:07;;;;;;;;;;;18.50;64.50;;;;;;5039006;28;1330;-70
2024/01/05 13:37:32;;;;;;;;;;;18.50;64.50;;;;;;5044522;28;852;-69
2024/01/05 13:39:58;;;;;;;;;;;18.50;64.50;;;;;;5043606;28;1597;-69
2024/01/05 13:42:25;;;;;;;;;;;18.50;64.50;;;;;;5040458;28;1386;-70
2024/01/05 13:44:51;;;;;;;;;;;18.40;64.50;;;;;;5042076;28;1234;-69
2024/01/05 13:47:16;;;;;;;;;;;18.40;64.60;;;;;;5052789;28;1423;-69
2024/01/05 13:49:42;;;;;;;;;;;18.40;64.60;;;;;;5044843;28;1890;-69
2024/01/05 13:52:07;;;;;;;;;;;18.40;64.60;;;;;;5045352;28;1313;-70
2024/01/05 13:54:33;;;;;;;;;;;18.40;64.70;;;;;;5032498;28;1495;-70
2024/01/05 13:56:59;;;;;;;;;;;18.40;64.70;;;;;;5044014;28;934;-70
2024/01/05 13:59:25;;;;;;;;;;;18.40;64.70;;;;;;5043046;28;1281;-69
2024/01/05 14:01:50;;;;;;;;;;;18.40;64.80;;;;;;5042695;28;1064;-70
2024/01/05 14:04:16;;;;;;;;;;;18.40;64.80;;;;;;5047287;28;1756;-70
2024/01/05 14:06:41;;;;;;;;;;;18.40;64.90;;;;;;5049293;28;1553;-70
2024/01/05 14:09:07;;;;;;;;;;;18.40;64.80;;;;;;5044635;28;1943;-69
2024/01/05 14:11:32;;;;;;;;;;;18.40;64.90;;;;;;5042864;28;822;-69
2024/01/05 14:13:58;;;;;;;;;;;18.40;64.90;;;;;;5046883;28;1429;-69
2024/01/05 14:16:23;;;;;;;;;;;18.40;65.00;;;;;;5046342;28;1254;-69
2024/01/05 14:18:50;;;;;;;;;;;18.30;64.90;;;;;;5042834;28;1506;-69
2024/01/05 14:21:26;;;;;;;;;;;18.30;64.90;;;;;;5044972;28;1280;-69
2024/01/05 14:23:52;;;;;;;;;;;18.30;64.90;;;;;;5041974;28;1264;-69
2024/01/05 14:26:18;;;;;;;;;;;18.30;65.00;;;;;;5077968;28;1458;-69